Time;durP1;ratioP1;P1;durP2;ratioP2;P2;SDS_P1;SDS_P2;PMS_P1;PMS_P2;Temp;Humidity;BMP_temperature;BMP_pressure;BME280_temperature;BME280_humidity;BME280_pressure;Samples;Min_cycle;Max_cycle;Signal;HPM_P1;HPM_P2
2022/01/12 00:04:10;;;;;;;496.63;173.18;;;;;;;-1.81;89.78;102423.97;741113;1154;115290;-80
2022/01/12 00:19:12;;;;;;;440.83;149.48;;;;;;;-1.55;89.38;102429.89;740621;1154;115860;-82
2022/01/12 00:34:14;;;;;;;424.60;139.47;;;;;;;-1.37;89.21;102417.84;740580;1162;115681;-83
2022/01/12 00:49:16;;;;;;;280.17;91.27;;;;;;;-1.42;89.13;102414.42;740731;1162;115145;-82
2022/01/12 01:04:19;;;;;;;241.70;78.45;;;;;;;-1.25;89.76;102407.47;740460;1155;114580;-82
2022/01/12 01:34:46;;;;;;;187.30;65.38;;;;;;;-1.04;90.76;102378.16;740477;1154;115453;-81
2022/01/12 02:05:10;;;;;;;118.43;44.08;;;;;;;-0.85;90.84;102388.34;741250;1154;115089;-81
2022/01/12 02:20:31;;;;;;;180.55;55.68;;;;;;;-0.81;90.82;102404.66;740340;1154;115630;-82
2022/01/12 02:35:53;;;;;;;139.20;48.20;;;;;;;-1.09;90.34;102415.97;740395;1154;115022;-82
2022/01/12 02:51:26;;;;;;;263.70;68.83;;;;;;;-1.30;89.22;102369.73;740973;1154;114265;-81
2022/01/12 03:06:32;;;;;;;419.73;96.93;;;;;;;-1.15;91.54;102384.23;740122;1161;114987;-82
2022/01/12 03:21:35;;;;;;;341.43;85.80;;;;;;;-1.06;91.96;102382.45;739938;1154;114411;-81
2022/01/12 03:37:05;;;;;;;254.30;68.50;;;;;;;-1.00;92.86;102391.89;741066;1154;114753;-81
2022/01/12 03:52:23;;;;;;;180.60;54.20;;;;;;;-0.96;92.98;102387.55;739959;1153;115896;-81
2022/01/12 04:23:17;;;;;;;185.95;57.08;;;;;;;-0.98;94.16;102384.98;740087;1154;114790;-81
2022/01/12 04:38:22;;;;;;;167.50;53.43;;;;;;;-0.89;94.63;102378.92;739966;1153;114802;-81
2022/01/12 04:53:25;;;;;;;168.25;52.00;;;;;;;-0.87;94.64;102374.59;740353;1154;115064;-81
2022/01/12 05:23:30;;;;;;;172.18;54.43;;;;;;;-0.82;95.63;102387.47;740598;1154;114382;-83
2022/01/12 05:38:33;;;;;;;184.73;59.83;;;;;;;-0.65;95.42;102377.04;740134;1154;115249;-81
2022/01/12 05:53:35;;;;;;;160.73;51.95;;;;;;;-0.59;95.71;102371.84;740374;1162;114617;-82
2022/01/12 06:08:37;;;;;;;131.43;43.17;;;;;;;-0.60;94.82;102370.97;740348;1162;113793;-81
2022/01/12 06:23:40;;;;;;;351.08;112.95;;;;;;;-0.61;94.41;102363.25;740485;1154;114316;-81
2022/01/12 06:38:43;;;;;;;172.47;61.37;;;;;;;-0.71;94.76;102373.64;740520;1154;115284;-83
2022/01/12 06:53:45;;;;;;;167.20;50.95;;;;;;;-0.71;96.20;102365.06;740279;1154;114348;-81
2022/01/12 07:08:48;;;;;;;149.58;45.25;;;;;;;-0.57;95.86;102376.13;740977;1154;114286;-81
2022/01/12 07:23:54;;;;;;;213.28;71.45;;;;;;;-0.51;95.85;102364.89;740817;1154;115132;-76
2022/01/12 07:38:59;;;;;;;156.90;53.63;;;;;;;-0.45;96.46;102362.27;741916;1154;114266;-77
2022/01/12 07:54:01;;;;;;;142.75;46.63;;;;;;;-0.43;96.02;102342.47;740899;1162;114198;-76
2022/01/12 08:09:07;;;;;;;139.55;47.75;;;;;;;-0.49;95.39;102349.41;740361;1162;113543;-75
2022/01/12 08:24:11;;;;;;;143.93;49.90;;;;;;;-0.46;95.95;102344.20;739983;1154;114375;-78
2022/01/12 08:39:33;;;;;;;158.30;51.73;;;;;;;-0.04;97.50;102334.33;740143;1155;114204;-78
2022/01/12 08:54:36;;;;;;;169.23;61.53;;;;;;;0.02;97.11;102323.11;741987;1154;114203;-80
2022/01/12 09:09:38;;;;;;;163.25;58.30;;;;;;;0.19;96.25;102325.50;742945;1154;115286;-83
2022/01/12 09:24:44;;;;;;;137.00;50.00;;;;;;;0.27;96.03;102323.67;743378;1155;114087;-81
2022/01/12 09:39:46;;;;;;;127.43;48.18;;;;;;;0.62;96.92;102301.67;743518;1154;113960;-80
2022/01/12 09:54:50;;;;;;;133.43;46.67;;;;;;;0.42;96.53;102301.95;743446;1154;113454;-84
2022/01/12 10:10:00;;;;;;;146.20;51.15;;;;;;;0.60;96.64;102280.19;743271;1154;114967;-85
2022/01/12 10:25:15;;;;;;;145.93;45.15;;;;;;;0.64;97.18;102267.19;742750;1162;115498;-81
2022/01/12 10:40:18;;;;;;;157.87;47.13;;;;;;;0.72;96.94;102264.49;742811;1162;114718;-83
2022/01/12 10:55:20;;;;;;;139.30;46.73;;;;;;;0.84;96.94;102235.03;742653;1155;114461;-82
2022/01/12 11:10:23;;;;;;;134.98;44.45;;;;;;;1.14;95.72;102215.56;742911;1154;114065;-83
2022/01/12 11:25:35;;;;;;;145.60;50.10;;;;;;;1.33;96.11;102194.53;741870;1162;113868;-90
2022/01/12 11:40:42;;;;;;;128.30;45.60;;;;;;;1.45;95.26;102208.97;741914;1154;114002;-75
2022/01/12 11:55:44;;;;;;;132.03;49.75;;;;;;;1.59;95.03;102175.92;740835;1162;114232;-81
2022/01/12 12:10:51;;;;;;;128.73;49.07;;;;;;;1.79;94.58;102161.72;741069;1162;114365;-76
2022/01/12 12:25:55;;;;;;;146.50;59.35;;;;;;;1.90;93.34;102144.23;741711;1154;114068;-74
2022/01/12 12:40:57;;;;;;;116.80;47.00;;;;;;;1.91;92.36;102114.86;741500;1152;113906;-74
2022/01/12 12:56:04;;;;;;;147.98;57.40;;;;;;;1.98;90.95;102111.26;741377;1153;113908;-74
2022/01/12 13:11:10;;;;;;;130.80;48.67;;;;;;;2.05;89.76;102091.25;740274;1154;115005;-74
2022/01/12 13:26:22;;;;;;;91.13;37.08;;;;;;;1.88;88.94;102083.03;740108;1154;115346;-74
2022/01/12 13:41:28;;;;;;;98.28;39.80;;;;;;;1.84;87.67;102077.07;740971;1154;114560;-75
2022/01/12 13:56:41;;;;;;;85.85;35.50;;;;;;;1.80;87.01;102096.98;740238;1154;114940;-75
2022/01/12 14:11:44;;;;;;;88.20;36.37;;;;;;;1.84;85.84;102102.95;740483;1162;115002;-74
2022/01/12 14:26:47;;;;;;;67.33;28.58;;;;;;;1.74;85.39;102101.45;740634;1154;115169;-74
2022/01/12 14:41:51;;;;;;;68.97;29.53;;;;;;;1.68;83.92;102112.80;740172;1154;113735;-75
2022/01/12 14:56:54;;;;;;;93.90;33.90;;;;;;;1.23;84.44;102111.13;740490;1154;114983;-77
2022/01/12 15:11:56;;;;;;;96.47;34.17;;;;;;;0.92;87.05;102074.67;740033;1154;113953;-75
2022/01/12 15:26:58;;;;;;;107.85;40.75;;;;;;;0.74;88.50;102075.86;739798;1162;113737;-76
2022/01/12 15:42:00;;;;;;;167.53;61.87;;;;;;;0.63;90.55;102071.77;739819;1154;113997;-78
2022/01/12 15:57:07;;;;;;;130.70;46.58;;;;;;;0.59;91.71;102061.50;740376;1162;114680;-78
2022/01/12 16:12:10;;;;;;;;;;;;;;;0.60;93.84;102065.79;741188;1154;114974;-73
2022/01/12 16:27:32;;;;;;;140.28;49.73;;;;;;;0.46;94.07;102053.10;740557;1162;100735;-74
2022/01/12 16:42:35;;;;;;;135.05;48.18;;;;;;;0.53;94.70;102079.67;740857;1162;114174;-75
2022/01/12 16:57:38;;;;;;;311.68;97.85;;;;;;;0.38;96.77;102084.22;740573;1154;114284;-74
2022/01/12 17:12:40;;;;;;;239.88;85.03;;;;;;;0.39;97.85;102039.45;740231;1154;115144;-74
2022/01/12 17:28:15;;;;;;;588.47;136.57;;;;;;;0.39;97.96;102025.70;740547;1162;114207;-76
2022/01/12 17:43:21;;;;;;;429.17;117.93;;;;;;;0.33;98.66;102037.00;740649;1154;116101;-75
2022/01/12 17:58:24;;;;;;;232.37;67.57;;;;;;;0.33;99.39;102026.67;741256;1162;115220;-76
2022/01/12 18:13:27;;;;;;;192.20;62.60;;;;;;;0.30;100.00;102050.81;740382;1156;113769;-74
2022/01/12 18:28:30;;;;;;;193.03;65.45;;;;;;;0.33;100.00;102042.16;740295;1162;113908;-75
2022/01/12 18:43:33;;;;;;;197.33;64.40;;;;;;;0.45;100.00;102013.53;740545;1153;114092;-76
2022/01/12 18:58:36;;;;;;;210.90;67.43;;;;;;;0.53;100.00;102017.69;740265;1154;115447;-75
2022/01/12 19:13:41;;;;;;;172.43;59.30;;;;;;;0.57;100.00;101999.53;740117;1162;114794;-76
2022/01/12 19:28:43;;;;;;;196.50;61.53;;;;;;;0.64;100.00;102003.69;740620;1162;115057;-75
2022/01/12 19:43:45;;;;;;;237.45;80.20;;;;;;;0.66;100.00;101993.36;739899;1155;113848;-76
2022/01/12 19:59:08;;;;;;;246.07;100.73;;;;;;;0.73;100.00;101956.17;740297;1154;114444;-76
2022/01/12 20:14:10;;;;;;;143.43;50.65;;;;;;;0.77;100.00;101988.81;740527;1155;114542;-75
2022/01/12 20:29:16;;;;;;;150.80;54.58;;;;;;;0.82;100.00;101961.15;740378;1154;113941;-75
2022/01/12 20:44:18;;;;;;;128.18;41.63;;;;;;;0.85;100.00;101962.82;740445;1154;115362;-76
2022/01/12 20:59:22;;;;;;;124.80;38.75;;;;;;;0.83;100.00;101957.69;740267;1154;115047;-76
2022/01/12 21:14:25;;;;;;;113.68;36.65;;;;;;;0.78;100.00;101948.31;740761;1155;114213;-75
2022/01/12 21:29:27;;;;;;;122.37;35.00;;;;;;;0.91;100.00;101941.16;741100;1152;114051;-75
2022/01/12 21:44:29;;;;;;;96.23;30.77;;;;;;;0.92;100.00;101935.12;740697;1154;114577;-74
2022/01/12 21:59:36;;;;;;;87.75;28.35;;;;;;;0.97;100.00;101894.52;741015;1162;113630;-75
2022/01/12 22:14:39;;;;;;;99.73;28.40;;;;;;;1.08;100.00;101879.63;741389;1154;113746;-75
2022/01/12 22:29:41;;;;;;;99.45;29.60;;;;;;;1.23;100.00;101869.80;741265;1155;113711;-74
2022/01/12 22:44:44;;;;;;;79.90;25.63;;;;;;;1.24;100.00;101853.40;741307;1155;113667;-75
2022/01/12 22:59:48;;;;;;;78.08;23.83;;;;;;;1.34;100.00;101867.81;740418;1162;115133;-75
2022/01/12 23:14:52;;;;;;;87.30;25.48;;;;;;;1.42;100.00;101886.57;740815;1154;113871;-74
2022/01/12 23:29:54;;;;;;;74.93;24.30;;;;;;;1.51;100.00;101898.44;740970;1162;114378;-75
